createdAt,value
2019-03-19T00:01:26.202Z,15.78
2019-03-19T00:03:55.764Z,19.27
2019-03-19T00:06:25.362Z,13.93
2019-03-19T00:08:54.906Z,13.08
2019-03-19T00:11:24.408Z,12.23
2019-03-19T00:13:53.982Z,10.15
2019-03-19T00:16:23.470Z,10.65
2019-03-19T00:18:52.973Z,7.78
2019-03-19T00:21:22.618Z,8.00
2019-03-19T00:23:52.137Z,16.32
2019-03-19T00:26:21.677Z,26.23
2019-03-19T00:28:51.329Z,22.70
2019-03-19T00:31:20.885Z,20.17
2019-03-19T00:33:51.065Z,14.93
2019-03-19T00:36:20.567Z,16.60
2019-03-19T00:38:50.768Z,16.40
2019-03-19T00:41:20.308Z,16.30
2019-03-19T00:43:49.818Z,29.90
2019-03-19T00:46:19.360Z,18.60
2019-03-19T00:48:49.316Z,15.38
2019-03-19T00:51:18.831Z,16.23
2019-03-19T00:53:48.691Z,15.85
2019-03-19T00:56:18.223Z,16.80
2019-03-19T00:58:47.951Z,26.48
2019-03-19T01:01:17.483Z,33.40
2019-03-19T01:03:47.167Z,20.85
2019-03-19T01:06:16.678Z,25.23
2019-03-19T01:08:46.273Z,27.82
2019-03-19T01:11:15.866Z,22.80
2019-03-19T01:13:45.446Z,24.75
2019-03-19T01:16:14.992Z,24.27
2019-03-19T01:18:44.570Z,21.35
2019-03-19T01:21:14.092Z,21.00
2019-03-19T01:23:43.644Z,18.02
2019-03-19T01:26:13.162Z,21.48
2019-03-19T01:28:42.650Z,18.10
2019-03-19T01:31:12.153Z,21.15
2019-03-19T01:33:41.757Z,19.32
2019-03-19T01:36:11.292Z,18.95
2019-03-19T01:38:40.894Z,17.82
2019-03-19T01:41:10.768Z,16.65
2019-03-19T01:43:40.277Z,18.85
2019-03-19T01:46:09.991Z,19.67
2019-03-19T01:48:39.472Z,20.45
2019-03-19T01:51:08.985Z,19.23
2019-03-19T01:53:38.587Z,17.05
2019-03-19T01:56:08.063Z,18.12
2019-03-19T01:58:37.536Z,19.27
2019-03-19T02:01:07.077Z,16.90
2019-03-19T02:03:36.605Z,16.97
2019-03-19T02:06:06.081Z,14.58
2019-03-19T02:08:35.704Z,16.20
2019-03-19T02:11:05.241Z,17.73
2019-03-19T02:13:34.712Z,18.65
2019-03-19T02:16:04.237Z,12.10
2019-03-19T02:18:33.817Z,11.50
2019-03-19T02:21:03.359Z,10.23
2019-03-19T02:23:32.987Z,9.48
2019-03-19T02:26:02.481Z,10.32
2019-03-19T02:28:32.042Z,11.80
2019-03-19T02:31:01.815Z,8.50
2019-03-19T02:33:31.362Z,11.97
2019-03-19T02:36:00.918Z,8.68
2019-03-19T02:38:30.458Z,9.08
2019-03-19T02:40:59.978Z,11.53
2019-03-19T02:43:29.541Z,8.60
2019-03-19T02:45:59.236Z,11.75
2019-03-19T02:48:28.700Z,12.20
2019-03-19T02:50:58.225Z,11.50
2019-03-19T02:53:29.612Z,13.30
2019-03-19T02:55:59.012Z,14.35
2019-03-19T02:58:28.529Z,16.35
2019-03-19T03:00:58.007Z,14.33
2019-03-19T03:03:27.545Z,14.33
2019-03-19T03:05:57.027Z,10.98
2019-03-19T03:08:26.465Z,12.90
2019-03-19T03:10:56.118Z,11.60
2019-03-19T03:13:25.692Z,11.53
2019-03-19T03:15:55.262Z,9.85
2019-03-19T03:18:24.881Z,11.63
2019-03-19T03:20:54.333Z,9.10
2019-03-19T03:23:23.839Z,10.03
2019-03-19T03:25:53.490Z,10.40
2019-03-19T03:28:23.066Z,10.72
2019-03-19T03:30:52.701Z,10.28
2019-03-19T03:33:22.323Z,11.68
2019-03-19T03:35:51.843Z,12.13
2019-03-19T03:38:21.540Z,11.33
2019-03-19T03:40:51.093Z,11.60
2019-03-19T03:43:21.044Z,12.35
2019-03-19T03:45:50.631Z,10.28
2019-03-19T03:48:20.523Z,12.45
2019-03-19T03:50:50.371Z,12.70
2019-03-19T03:53:19.942Z,17.30
2019-03-19T03:55:49.522Z,21.42
2019-03-19T03:58:19.486Z,13.68
2019-03-19T04:00:49.044Z,15.45
2019-03-19T04:03:18.693Z,14.83
2019-03-19T04:05:48.284Z,17.98
2019-03-19T04:08:18.104Z,14.25
2019-03-19T04:10:47.702Z,18.30
2019-03-19T04:13:17.551Z,13.22
2019-03-19T04:15:47.454Z,18.12
2019-03-19T04:18:17.031Z,13.62
2019-03-19T04:20:46.614Z,18.02
2019-03-19T04:23:16.179Z,15.70
2019-03-19T04:25:45.703Z,15.53
2019-03-19T04:28:15.337Z,15.32
2019-03-19T04:30:44.999Z,15.15
2019-03-19T04:33:14.509Z,15.00
2019-03-19T04:35:44.116Z,14.50
2019-03-19T04:38:13.731Z,13.85
2019-03-19T04:40:43.412Z,13.78
2019-03-19T04:43:13.077Z,12.07
2019-03-19T04:45:42.727Z,15.53
2019-03-19T04:48:12.796Z,12.15
2019-03-19T04:50:42.363Z,15.15
2019-03-19T04:53:12.004Z,10.90
2019-03-19T04:55:42.527Z,11.73
2019-03-19T04:58:12.642Z,12.35
2019-03-19T05:00:42.571Z,11.90
2019-03-19T05:03:12.131Z,10.88
2019-03-19T05:05:42.066Z,14.43
2019-03-19T05:08:11.725Z,12.45
2019-03-19T05:10:41.257Z,8.33
2019-03-19T05:13:10.746Z,7.05
2019-03-19T05:15:40.206Z,10.55
2019-03-19T05:18:10.149Z,11.10
2019-03-19T05:20:40.250Z,10.10
2019-03-19T05:23:09.801Z,12.85
2019-03-19T05:25:39.602Z,14.85
2019-03-19T05:28:09.168Z,13.13
2019-03-19T05:30:39.170Z,13.65
2019-03-19T05:33:08.793Z,14.18
2019-03-19T05:35:38.401Z,14.73
2019-03-19T05:38:07.954Z,11.03
2019-03-19T05:40:37.544Z,14.68
2019-03-19T05:43:07.189Z,12.70
2019-03-19T05:45:36.728Z,13.20
2019-03-19T05:48:06.442Z,16.23
2019-03-19T05:50:35.958Z,13.95
2019-03-19T05:53:05.541Z,18.40
2019-03-19T05:55:35.121Z,19.95
2019-03-19T05:58:04.826Z,30.23
2019-03-19T06:00:34.819Z,19.70
2019-03-19T06:03:04.728Z,25.17
2019-03-19T06:05:34.382Z,22.07
2019-03-19T06:08:03.942Z,16.02
2019-03-19T06:10:33.534Z,13.28
2019-03-19T06:13:03.435Z,10.80
2019-03-19T06:15:32.971Z,10.08
2019-03-19T06:18:02.502Z,11.60
2019-03-19T06:20:32.097Z,11.55
2019-03-19T06:23:01.630Z,10.93
2019-03-19T06:25:31.195Z,11.60
2019-03-19T06:28:01.057Z,10.88
2019-03-19T06:30:31.049Z,9.08
2019-03-19T06:33:00.520Z,12.80
2019-03-19T06:35:30.155Z,12.05
2019-03-19T06:37:59.692Z,11.55
2019-03-19T06:40:29.301Z,10.50
2019-03-19T06:42:58.983Z,11.85
2019-03-19T06:45:28.501Z,9.93
2019-03-19T06:47:58.242Z,10.28
2019-03-19T06:50:28.213Z,11.20
2019-03-19T06:52:57.965Z,15.28
2019-03-19T06:55:27.501Z,11.00
2019-03-19T06:57:57.359Z,12.85
2019-03-19T07:00:26.945Z,9.70
2019-03-19T07:02:56.824Z,9.63
2019-03-19T07:05:26.714Z,11.43
2019-03-19T07:07:56.188Z,19.10
2019-03-19T07:10:25.830Z,44.63
2019-03-19T07:12:55.869Z,67.15
2019-03-19T07:15:25.354Z,19.48
2019-03-19T07:17:55.185Z,33.38
2019-03-19T07:20:25.083Z,30.48
2019-03-19T07:22:54.529Z,12.35
2019-03-19T07:25:24.132Z,11.12
2019-03-19T07:27:53.705Z,14.50
2019-03-19T07:30:23.347Z,11.55
2019-03-19T07:32:52.993Z,9.28
2019-03-19T07:35:22.492Z,7.47
2019-03-19T07:37:51.977Z,9.03
2019-03-19T07:40:21.462Z,7.80
2019-03-19T07:42:51.457Z,8.58
2019-03-19T07:45:20.948Z,6.12
2019-03-19T07:47:50.486Z,6.00
2019-03-19T07:50:20.045Z,7.00
2019-03-19T07:52:49.524Z,7.58
2019-03-19T07:55:19.100Z,6.12
2019-03-19T07:57:48.619Z,5.42
2019-03-19T08:00:18.201Z,6.30
2019-03-19T08:02:47.764Z,9.43
2019-03-19T08:05:17.317Z,8.10
2019-03-19T08:07:46.872Z,7.03
2019-03-19T08:10:16.442Z,5.80
2019-03-19T08:12:45.936Z,7.40
2019-03-19T08:15:15.569Z,5.97
2019-03-19T08:17:45.049Z,5.63
2019-03-19T08:20:14.645Z,8.70
2019-03-19T08:22:44.948Z,5.27
2019-03-19T08:25:14.606Z,6.30
2019-03-19T08:27:44.084Z,5.87
2019-03-19T08:30:15.950Z,6.13
2019-03-19T08:32:45.413Z,6.80
2019-03-19T08:35:14.933Z,8.67
2019-03-19T08:37:44.396Z,5.60
2019-03-19T08:40:14.664Z,6.13
2019-03-19T08:42:44.093Z,7.47
2019-03-19T08:45:14.086Z,6.60
2019-03-19T08:47:43.630Z,8.23
2019-03-19T08:50:16.527Z,7.90
2019-03-19T08:52:46.011Z,57.63
2019-03-19T08:55:15.557Z,6.37
2019-03-19T08:57:45.016Z,6.00
2019-03-19T09:00:18.619Z,6.53
2019-03-19T09:02:48.038Z,6.00
2019-03-19T09:05:17.877Z,6.57
2019-03-19T09:07:47.312Z,6.60
2019-03-19T09:10:16.984Z,7.07
2019-03-19T09:12:48.463Z,6.53
2019-03-19T09:15:17.710Z,7.17
2019-03-19T09:17:47.137Z,7.23
2019-03-19T09:20:16.852Z,8.37
2019-03-19T09:22:46.297Z,6.30
2019-03-19T09:25:15.761Z,8.40
2019-03-19T09:27:45.269Z,7.27
2019-03-19T09:30:15.729Z,6.40
2019-03-19T09:32:45.188Z,7.43
2019-03-19T09:35:15.056Z,6.50
2019-03-19T09:37:53.626Z,7.33
2019-03-19T09:40:15.775Z,7.30
2019-03-19T09:42:45.097Z,5.20
2019-03-19T09:45:14.770Z,5.73
2019-03-19T09:47:44.197Z,5.73
2019-03-19T09:50:14.646Z,5.30
2019-03-19T09:52:44.179Z,5.20
2019-03-19T09:55:14.993Z,4.33
2019-03-19T09:57:44.379Z,5.27
2019-03-19T10:00:16.500Z,4.10
2019-03-19T10:02:45.953Z,7.20
2019-03-19T10:05:15.664Z,6.43
2019-03-19T10:07:45.044Z,4.90
2019-03-19T10:10:15.828Z,6.03
2019-03-19T10:12:45.214Z,6.07
2019-03-19T10:15:14.747Z,5.70
2019-03-19T10:17:44.107Z,5.10
2019-03-19T10:20:14.261Z,4.33
2019-03-19T10:22:43.908Z,6.57
2019-03-19T10:25:13.375Z,6.03
2019-03-19T10:27:42.730Z,5.30
2019-03-19T10:30:15.116Z,6.13
2019-03-19T10:32:44.500Z,4.43
2019-03-19T10:35:13.969Z,4.43
2019-03-19T10:37:43.336Z,5.30
2019-03-19T10:40:12.855Z,5.10
2019-03-19T10:42:45.096Z,4.30
2019-03-19T10:45:14.659Z,6.57
2019-03-19T10:47:44.007Z,5.23
2019-03-19T10:50:16.974Z,10.40
2019-03-19T10:52:46.408Z,4.80
2019-03-19T10:55:15.821Z,5.27
2019-03-19T10:57:45.160Z,4.13
2019-03-19T11:00:17.838Z,4.33
2019-03-19T11:02:47.377Z,7.10
2019-03-19T11:05:16.759Z,5.00
2019-03-19T11:07:46.076Z,6.33
2019-03-19T11:10:15.655Z,5.43
2019-03-19T11:12:45.040Z,5.00
2019-03-19T11:15:15.816Z,6.83
2019-03-19T11:17:45.393Z,8.50
2019-03-19T11:20:16.556Z,9.50
2019-03-19T11:22:45.921Z,9.93
2019-03-19T11:25:15.952Z,4.50
2019-03-19T11:27:45.486Z,6.10
2019-03-19T11:30:17.428Z,4.37
2019-03-19T11:32:46.862Z,6.40
2019-03-19T11:35:16.653Z,4.07
2019-03-19T11:37:46.063Z,5.50
2019-03-19T11:40:15.417Z,5.33
2019-03-19T11:42:44.753Z,4.37
2019-03-19T11:45:14.842Z,4.17
2019-03-19T11:47:44.219Z,4.77
2019-03-19T11:50:16.138Z,4.47
2019-03-19T11:52:45.492Z,7.17
2019-03-19T11:55:15.556Z,4.10
2019-03-19T11:57:45.007Z,6.23
2019-03-19T12:00:33.482Z,8.93
2019-03-19T12:03:11.437Z,4.00
2019-03-19T12:05:33.913Z,4.50
2019-03-19T12:08:03.302Z,5.57
2019-03-19T12:10:32.687Z,4.73
2019-03-19T12:13:02.021Z,5.00
2019-03-19T12:15:31.702Z,6.50
2019-03-19T12:18:01.070Z,6.90
2019-03-19T12:20:30.446Z,5.20
2019-03-19T12:22:59.798Z,9.20
2019-03-19T12:25:31.070Z,8.63
2019-03-19T12:28:00.285Z,10.20
2019-03-19T12:30:30.000Z,9.33
2019-03-19T12:32:59.436Z,6.97
2019-03-19T12:35:30.775Z,6.97
2019-03-19T12:37:59.952Z,6.43
2019-03-19T12:40:36.918Z,6.27
2019-03-19T12:43:00.397Z,7.70
2019-03-19T12:45:29.760Z,5.97
2019-03-19T12:47:59.310Z,6.30
2019-03-19T12:50:28.667Z,4.80
2019-03-19T12:52:58.051Z,5.40
2019-03-19T12:55:27.371Z,4.47
2019-03-19T12:57:56.792Z,6.73
2019-03-19T13:00:34.013Z,7.97
2019-03-19T13:02:57.621Z,4.93
2019-03-19T13:05:27.029Z,8.23
2019-03-19T13:07:56.438Z,6.00
2019-03-19T13:10:25.862Z,6.63
2019-03-19T13:12:55.385Z,4.90
2019-03-19T13:15:24.763Z,4.90
2019-03-19T13:17:54.140Z,5.57
2019-03-19T13:20:23.536Z,4.70
2019-03-19T13:22:52.923Z,5.90
2019-03-19T13:25:22.405Z,6.60
2019-03-19T13:27:51.759Z,8.13
2019-03-19T13:30:21.157Z,8.30
2019-03-19T13:32:50.544Z,5.10
2019-03-19T13:35:19.972Z,5.70
2019-03-19T13:37:49.425Z,7.07
2019-03-19T13:40:19.220Z,6.07
2019-03-19T13:42:48.564Z,4.17
2019-03-19T13:45:18.823Z,7.30
2019-03-19T13:47:48.400Z,7.40
2019-03-19T13:50:17.749Z,4.97
2019-03-19T13:52:47.160Z,3.80
2019-03-19T13:55:17.170Z,7.23
2019-03-19T13:57:46.546Z,5.87
2019-03-19T14:00:16.419Z,8.47
2019-03-19T14:02:45.884Z,5.23
2019-03-19T14:05:15.429Z,4.83
2019-03-19T14:07:44.853Z,4.70
2019-03-19T14:10:14.347Z,5.23
2019-03-19T14:12:43.683Z,4.17
2019-03-19T14:15:14.404Z,3.90
2019-03-19T14:17:43.944Z,3.53
2019-03-19T14:20:14.954Z,4.93
2019-03-19T14:22:45.464Z,5.83
2019-03-19T14:25:15.484Z,6.67
2019-03-19T14:27:45.093Z,4.30
2019-03-19T14:30:16.216Z,4.70
2019-03-19T14:32:46.031Z,6.00
2019-03-19T14:35:15.464Z,4.90
2019-03-19T14:37:44.848Z,7.47
2019-03-19T14:40:16.043Z,5.57
2019-03-19T14:42:45.689Z,6.20
2019-03-19T14:45:15.298Z,5.03
2019-03-19T14:47:44.694Z,5.90
2019-03-19T14:50:14.748Z,6.50
2019-03-19T14:52:44.187Z,7.17
2019-03-19T14:55:13.798Z,5.80
2019-03-19T14:57:43.196Z,8.57
2019-03-19T15:00:14.176Z,6.73
2019-03-19T15:02:43.598Z,8.07
2019-03-19T15:05:13.387Z,5.77
2019-03-19T15:07:42.945Z,4.87
2019-03-19T15:10:14.800Z,6.93
2019-03-19T15:12:44.296Z,11.53
2019-03-19T15:15:15.090Z,5.97
2019-03-19T15:17:44.930Z,7.07
2019-03-19T15:20:16.442Z,6.17
2019-03-19T15:22:46.009Z,9.00
2019-03-19T15:25:15.377Z,5.60
2019-03-19T15:27:44.712Z,7.03
2019-03-19T15:30:15.732Z,7.60
2019-03-19T15:32:45.358Z,5.40
2019-03-19T15:35:15.115Z,7.00
2019-03-19T15:37:44.437Z,7.97
2019-03-19T15:40:14.563Z,5.93
2019-03-19T15:42:44.082Z,7.07
2019-03-19T15:45:13.600Z,15.50
2019-03-19T15:47:43.314Z,7.10
2019-03-19T15:50:14.319Z,8.63
2019-03-19T15:52:43.841Z,6.03
2019-03-19T15:55:13.419Z,6.90
2019-03-19T15:57:42.941Z,7.00
2019-03-19T16:00:14.124Z,6.33
2019-03-19T16:02:43.750Z,9.03
2019-03-19T16:05:13.152Z,10.03
2019-03-19T16:07:42.832Z,6.17
2019-03-19T16:10:12.504Z,7.77
2019-03-19T16:12:41.896Z,6.97
2019-03-19T16:15:13.091Z,10.03
2019-03-19T16:17:42.616Z,7.77
2019-03-19T16:20:13.917Z,10.80
2019-03-19T16:22:43.293Z,9.90
2019-03-19T16:25:13.563Z,10.83
2019-03-19T16:27:42.909Z,7.43
2019-03-19T16:30:13.684Z,8.27
2019-03-19T16:32:43.216Z,7.13
2019-03-19T16:35:12.921Z,9.47
2019-03-19T16:37:42.514Z,9.50
2019-03-19T16:40:16.733Z,7.50
2019-03-19T16:42:46.541Z,10.90
2019-03-19T16:45:17.952Z,11.90
2019-03-19T16:47:47.023Z,9.97
2019-03-19T16:50:16.429Z,8.93
2019-03-19T16:52:45.879Z,13.87
2019-03-19T16:55:16.460Z,18.13
2019-03-19T16:57:45.819Z,10.10
2019-03-19T17:00:16.754Z,8.33
2019-03-19T17:02:46.367Z,9.63
2019-03-19T17:05:16.360Z,8.47
2019-03-19T17:07:45.871Z,11.03
2019-03-19T17:10:15.905Z,8.60
2019-03-19T17:12:45.299Z,9.70
2019-03-19T17:15:16.574Z,8.73
2019-03-19T17:18:24.339Z,12.33
2019-03-19T17:20:53.770Z,20.60
2019-03-19T17:23:23.203Z,11.60
2019-03-19T17:25:52.656Z,14.60
2019-03-19T17:28:22.902Z,11.95
2019-03-19T17:30:52.540Z,18.95
2019-03-19T17:33:22.008Z,14.40
2019-03-19T17:35:51.443Z,25.60
2019-03-19T17:38:21.127Z,41.73
2019-03-19T17:40:50.535Z,31.82
2019-03-19T17:43:20.002Z,18.82
2019-03-19T17:45:49.406Z,15.53
2019-03-19T17:49:12.655Z,13.48
2019-03-19T17:51:42.559Z,10.05
2019-03-19T17:54:12.026Z,11.60
2019-03-19T17:56:41.494Z,13.65
2019-03-19T17:59:11.025Z,9.13
2019-03-19T18:01:40.884Z,10.38
2019-03-19T18:04:10.293Z,10.25
2019-03-19T18:06:39.843Z,12.15
2019-03-19T18:09:09.635Z,12.10
2019-03-19T18:11:39.121Z,12.03
2019-03-19T18:14:08.787Z,9.23
2019-03-19T18:16:56.515Z,10.98
2019-03-19T18:19:26.017Z,7.87
2019-03-19T18:21:55.468Z,10.48
2019-03-19T18:24:25.202Z,13.75
2019-03-19T18:27:30.568Z,9.05
2019-03-19T18:30:00.059Z,9.33
2019-03-19T18:32:34.954Z,11.68
2019-03-19T18:35:00.714Z,12.10
2019-03-19T18:37:30.490Z,9.00
2019-03-19T18:40:00.028Z,12.58
2019-03-19T18:42:29.736Z,12.23
2019-03-19T18:44:59.288Z,9.23
2019-03-19T18:47:29.172Z,9.25
2019-03-19T18:50:16.877Z,7.05
2019-03-19T18:52:46.381Z,10.85
2019-03-19T18:55:16.104Z,10.25
2019-03-19T18:57:45.666Z,13.22
2019-03-19T19:00:15.917Z,9.58
2019-03-19T19:02:50.074Z,7.95
2019-03-19T19:05:16.629Z,10.48
2019-03-19T19:07:46.434Z,10.32
2019-03-19T19:10:15.926Z,11.50
2019-03-19T19:12:54.636Z,8.93
2019-03-19T19:15:24.163Z,8.55
2019-03-19T19:17:54.073Z,7.65
2019-03-19T19:20:23.541Z,12.65
2019-03-19T19:23:10.978Z,9.13
2019-03-19T19:25:40.379Z,9.53
2019-03-19T19:28:09.891Z,9.43
2019-03-19T19:30:39.477Z,9.35
2019-03-19T19:33:08.970Z,10.88
2019-03-19T19:35:38.425Z,14.75
2019-03-19T19:38:07.889Z,15.72
2019-03-19T19:40:37.346Z,24.60
2019-03-19T19:43:06.754Z,25.48
2019-03-19T19:45:36.225Z,24.80
2019-03-19T19:48:05.896Z,18.80
2019-03-19T19:50:35.330Z,16.82
2019-03-19T19:53:04.884Z,13.55
2019-03-19T19:55:34.285Z,17.57
2019-03-19T19:58:03.838Z,11.50
2019-03-19T20:00:33.305Z,10.13
2019-03-19T20:03:11.788Z,10.25
2019-03-19T20:05:34.216Z,7.10
2019-03-19T20:08:03.725Z,13.93
2019-03-19T20:10:33.284Z,9.25
2019-03-19T20:13:02.737Z,10.78
2019-03-19T20:15:32.321Z,8.23
2019-03-19T20:18:01.775Z,12.25
2019-03-19T20:20:31.255Z,10.88
2019-03-19T20:23:00.824Z,8.93
2019-03-19T20:25:30.250Z,10.43
2019-03-19T20:27:59.687Z,15.48
2019-03-19T20:30:29.194Z,10.85
2019-03-19T20:32:58.923Z,17.67
2019-03-19T20:35:28.489Z,20.80
2019-03-19T20:37:57.970Z,26.57
2019-03-19T20:40:27.474Z,18.85
2019-03-19T20:42:56.969Z,16.90
2019-03-19T20:45:26.410Z,8.93
2019-03-19T20:47:56.089Z,10.28
2019-03-19T20:50:27.058Z,11.38
2019-03-19T20:52:56.519Z,14.60
2019-03-19T20:55:25.972Z,13.22
2019-03-19T20:57:55.400Z,15.30
2019-03-19T21:00:25.221Z,13.25
2019-03-19T21:02:54.646Z,11.97
2019-03-19T21:05:24.102Z,10.63
2019-03-19T21:07:53.587Z,13.18
2019-03-19T21:10:23.138Z,15.40
2019-03-19T21:12:52.664Z,10.35
2019-03-19T21:15:23.565Z,13.13
2019-03-19T21:17:53.026Z,10.35
2019-03-19T21:20:22.467Z,9.80
2019-03-19T21:22:52.014Z,7.42
2019-03-19T21:25:21.368Z,8.43
2019-03-19T21:27:50.791Z,9.45
2019-03-19T21:30:20.196Z,12.98
2019-03-19T21:32:56.210Z,7.62
2019-03-19T21:35:26.012Z,8.40
2019-03-19T21:37:55.377Z,12.30
2019-03-19T21:40:24.751Z,12.53
2019-03-19T21:42:54.178Z,10.78
2019-03-19T21:45:23.726Z,14.20
2019-03-19T21:47:53.171Z,10.70
2019-03-19T21:50:22.528Z,10.85
2019-03-19T21:52:51.915Z,14.47
2019-03-19T21:55:21.533Z,10.55
2019-03-19T21:57:50.928Z,13.13
2019-03-19T22:00:20.353Z,15.95
2019-03-19T22:02:49.741Z,11.88
2019-03-19T22:05:19.163Z,12.93
2019-03-19T22:07:48.626Z,11.85
2019-03-19T22:10:18.161Z,15.68
2019-03-19T22:12:49.277Z,16.10
2019-03-19T22:15:18.769Z,13.60
2019-03-19T22:17:48.377Z,12.80
2019-03-19T22:20:17.807Z,14.18
2019-03-19T22:22:47.188Z,19.23
2019-03-19T22:25:17.071Z,16.67
2019-03-19T22:27:46.460Z,15.78
2019-03-19T22:30:16.603Z,24.52
2019-03-19T22:32:46.063Z,18.30
2019-03-19T22:35:15.475Z,11.48
2019-03-19T22:37:45.175Z,11.83
2019-03-19T22:40:15.154Z,14.90
2019-03-19T22:42:44.645Z,10.58
2019-03-19T22:45:14.755Z,10.32
2019-03-19T22:47:44.134Z,8.50
2019-03-19T22:50:13.899Z,11.03
2019-03-19T22:52:43.576Z,9.60
2019-03-19T22:55:13.217Z,9.75
2019-03-19T22:57:42.902Z,12.00
2019-03-19T23:00:18.730Z,11.22
2019-03-19T23:02:48.094Z,8.80
2019-03-19T23:05:53.493Z,8.80
2019-03-19T23:08:22.870Z,8.78
2019-03-19T23:10:52.249Z,10.95
2019-03-19T23:13:21.618Z,13.22
2019-03-19T23:15:51.176Z,11.60
2019-03-19T23:18:20.553Z,7.08
2019-03-19T23:20:49.920Z,8.53
2019-03-19T23:23:19.357Z,12.10
2019-03-19T23:25:48.756Z,11.60
2019-03-19T23:28:18.473Z,9.40
2019-03-19T23:30:47.809Z,15.30
2019-03-19T23:33:17.207Z,17.15
2019-03-19T23:35:46.593Z,15.98
2019-03-19T23:38:16.112Z,17.62
2019-03-19T23:40:45.480Z,16.40
2019-03-19T23:43:14.872Z,17.65
2019-03-19T23:45:44.208Z,17.60
2019-03-19T23:48:13.572Z,16.48
2019-03-19T23:50:42.910Z,15.32
2019-03-19T23:53:12.578Z,18.35
2019-03-19T23:55:41.928Z,17.00
2019-03-19T23:58:11.288Z,15.68
